Pagrindinis puslapis
METAR-TAF:

METAR-TAF

Oro uostai :

Melvil Holo oro uostas

Marigo, Dominika

platuma: 15-32N, ilguma: 061-18W, Aukštis: 13 m

Dabartinis oras

Ataskaita buvo paskelbta 3 valandos ir 11 minutes, ne 22:00 UTC
Vėjas 3 kt iš Vakarų/Šiaurės Vakarų
Temperatūra 25°C
Drėgmė 94%
Slėgis 1014 hPa
Matomumas 10 km arba daugiau
Su prošvaistėmis ne aukštis 1400 ft

METAR: TDPD 282200Z 29003KT 9999 BKN014 25/24 Q1014

Laikas: 21:11 (01:11 UTC)

Prognozė

Ataskaita buvo paskelbta 2 valandos ir 11 minutes, ne 23:00 UTC
Prognozė galioja nuo 29 metu 00 UTC su 29 metu 24 UTC
Vėjas 4 kt iš Pietryčių
Matomumas 10 km arba daugiau
Išsisklaidę debesys ne aukštis 1800 ft
Laikinai
nuo 29 metu 00 UTC su 29 metu 06 UTC
Matomumas: 5000 m
Su prošvaistėmis ne aukštis 1500 ft
Išsisklaidę debesys ne aukštis 3200 ft
lietus

TAF: TDPD 282300Z 2900/2924 13004KT 9999 SCT018 TEMPO 2900/2906 5000 SHRA BKN015 SCT032

Orai ataskaitas ir orų prognozės (METAR, TAF).

turimą stotys yra geltonos ir raudonos taškus žemėlapyje.

Perkelti pele per norėdami pamatyti stoties vardą.

Tada spustelėkite, norėdami matyti oro stebėjimo ir prognozės.

Norėdami pakeisti žemėlapį: spustelėkite ant žalios mygtukų su juodo kryžiaus žemyn,; žalią mygtuką su brūkšneliu, jei norite nutolinti; arba žalių rodyklių gretimoms žemėlapius.


METAR-TAF: